createdAt,value
2018-01-17T00:01:55.000Z,41.17
2018-01-17T00:11:55.000Z,41.09
2018-01-17T00:21:55.000Z,41.085
2018-01-17T00:31:55.000Z,41.092
2018-01-17T00:41:55.000Z,41.066
2018-01-17T00:51:56.000Z,41.041
2018-01-17T01:01:56.000Z,40.984
2018-01-17T01:11:56.000Z,41.034
2018-01-17T01:21:56.000Z,40.891
2018-01-17T01:31:56.000Z,40.994
2018-01-17T01:41:56.000Z,40.863
2018-01-17T01:51:56.000Z,40.816
2018-01-17T02:01:56.000Z,40.802
2018-01-17T02:11:56.000Z,40.712
2018-01-17T02:21:56.000Z,40.624
2018-01-17T02:31:56.000Z,40.512
2018-01-17T02:41:56.000Z,40.466
2018-01-17T02:51:56.000Z,40.27
2018-01-17T03:01:56.000Z,40.203
2018-01-17T03:11:56.000Z,40.373
2018-01-17T03:21:56.000Z,40.292
2018-01-17T03:31:56.000Z,40.28
2018-01-17T03:41:56.000Z,40.083
2018-01-17T03:51:56.000Z,40.176
2018-01-17T04:01:56.000Z,40.068
2018-01-17T04:11:56.000Z,39.914
2018-01-17T04:21:56.000Z,40.061
2018-01-17T04:31:56.000Z,40.058
2018-01-17T04:41:56.000Z,39.991
2018-01-17T04:51:56.000Z,40.213
2018-01-17T05:01:56.000Z,40.168
2018-01-17T05:11:56.000Z,40.09
2018-01-17T05:21:56.000Z,39.926
2018-01-17T05:31:56.000Z,39.805
2018-01-17T05:41:56.000Z,39.75
2018-01-17T05:51:57.000Z,39.664
2018-01-17T06:01:56.000Z,39.49
2018-01-17T06:11:56.000Z,39.307
2018-01-17T06:21:56.000Z,39.047
2018-01-17T06:31:56.000Z,38.96
2018-01-17T06:41:56.000Z,38.82
2018-01-17T06:51:56.000Z,38.049
2018-01-17T07:01:56.000Z,37.607
2018-01-17T07:11:56.000Z,37.27
2018-01-17T07:21:56.000Z,37.257
2018-01-17T07:31:56.000Z,37.16
2018-01-17T07:41:56.000Z,36.966
2018-01-17T07:51:56.000Z,37.053
2018-01-17T08:01:57.000Z,36.916
2018-01-17T08:11:56.000Z,36.949
2018-01-17T08:21:56.000Z,37.036
2018-01-17T08:31:56.000Z,37.017
2018-01-17T08:41:56.000Z,36.856
2018-01-17T08:51:56.000Z,36.967
2018-01-17T09:01:56.000Z,36.776
2018-01-17T09:11:56.000Z,36.518
2018-01-17T09:21:57.000Z,36.686
2018-01-17T09:31:57.000Z,36.635
2018-01-17T09:41:57.000Z,36.337
2018-01-17T09:51:57.000Z,35.416
2018-01-17T10:01:57.000Z,35.73
2018-01-17T10:11:57.000Z,35.279
2018-01-17T10:21:57.000Z,35.333
2018-01-17T10:31:57.000Z,34.219
2018-01-17T10:41:57.000Z,33.225
2018-01-17T10:51:57.000Z,33.597
2018-01-17T11:01:57.000Z,33.118
2018-01-17T11:11:57.000Z,33.563
2018-01-17T11:21:57.000Z,33.704
2018-01-17T11:31:57.000Z,33.743
2018-01-17T11:41:57.000Z,33.674
2018-01-17T11:51:57.000Z,33.358
2018-01-17T12:01:57.000Z,33.574
2018-01-17T12:11:57.000Z,33.627
2018-01-17T12:21:57.000Z,33.928
2018-01-17T12:31:57.000Z,34.045
2018-01-17T12:41:57.000Z,34.262
2018-01-17T12:51:57.000Z,34.065
2018-01-17T13:01:57.000Z,34.249
2018-01-17T13:11:57.000Z,34.183
2018-01-17T13:21:57.000Z,34.237
2018-01-17T13:31:57.000Z,34.183
2018-01-17T13:41:57.000Z,34.03
2018-01-17T13:51:57.000Z,34.185
2018-01-17T14:01:57.000Z,34.306
2018-01-17T14:11:57.000Z,34.309
2018-01-17T14:21:57.000Z,34.266
2018-01-17T14:31:58.000Z,34.44
2018-01-17T14:41:57.000Z,34.74
2018-01-17T14:51:57.000Z,34.951
2018-01-17T15:01:57.000Z,35
2018-01-17T15:11:58.000Z,35.196
2018-01-17T15:21:57.000Z,35.391
2018-01-17T15:31:57.000Z,35.295
2018-01-17T15:41:57.000Z,35.337
2018-01-17T15:51:57.000Z,35.315
2018-01-17T16:01:57.000Z,35.422
2018-01-17T16:11:57.000Z,35.53
2018-01-17T16:21:57.000Z,35.497
2018-01-17T16:31:57.000Z,35.43
2018-01-17T16:41:57.000Z,35.247
2018-01-17T17:01:57.000Z,34.987
2018-01-17T17:11:57.000Z,35.192
2018-01-17T17:21:57.000Z,35.041
2018-01-17T17:31:58.000Z,35.018
2018-01-17T17:41:58.000Z,34.889
2018-01-17T17:51:58.000Z,35.061
2018-01-17T18:01:58.000Z,35.289
2018-01-17T18:11:58.000Z,34.798
2018-01-17T18:21:58.000Z,34.886
2018-01-17T18:41:58.000Z,35.287
2018-01-17T18:51:58.000Z,35.182
2018-01-17T19:01:58.000Z,35.061
2018-01-17T19:11:58.000Z,35.175
2018-01-17T19:21:59.000Z,34.989
2018-01-17T19:31:58.000Z,34.883
2018-01-17T19:41:58.000Z,34.686
2018-01-17T19:51:58.000Z,34.81
2018-01-17T20:01:58.000Z,34.296
2018-01-17T20:11:58.000Z,34.722
2018-01-17T20:21:58.000Z,35.023
2018-01-17T20:31:58.000Z,35.269
2018-01-17T20:41:58.000Z,35.589
2018-01-17T20:51:58.000Z,35.668
2018-01-17T21:01:58.000Z,35.781
2018-01-17T21:11:58.000Z,35.54
2018-01-17T21:21:58.000Z,35.973
2018-01-17T21:31:58.000Z,35.813
2018-01-17T21:41:58.000Z,36.195
2018-01-17T21:51:58.000Z,36.089
2018-01-17T22:01:58.000Z,36.667
2018-01-17T22:11:58.000Z,36.493
2018-01-17T22:21:58.000Z,36.934
2018-01-17T22:31:58.000Z,36.987
2018-01-17T22:41:58.000Z,37.351
2018-01-17T22:51:58.000Z,37.359
2018-01-17T23:01:58.000Z,36.891
2018-01-17T23:11:58.000Z,37.136
2018-01-17T23:21:58.000Z,37.026
2018-01-17T23:31:58.000Z,36.937
2018-01-17T23:41:58.000Z,36.934
2018-01-17T23:51:58.000Z,36.963
